Weather at Strathaven Airfield

Public forecast

Using degrees Celsius for public forecast. Weather courtesy of forecast.io.

Closest aviation weather report (METAR) to Strathaven Airfield

Closest report is Glasgow International Airport, 15.7 nm (29.1 km) NW.

2024/05/29 08:50 (retrieved 22 minutes ago)

EGPF 290850Z AUTO 25004KT 9999 BKN023 OVC028 14/11 Q1005

Closest aviation forecast (TAF) to Strathaven Airfield

Closest forecast is Glasgow International Airport, 15.7 nm (29.1 km) NW.

2024/05/29 07:36 Ammendment (retrieved 2 hours ago)

TAF AMD EGPF 290729Z 2907/3006 24006KT 9999 SCT015 TEMPO 2907/2909 8000 -DZ BKN009 PROB30 TEMPO 2907/2909 4000 BR DZ BKN004 BECMG 2908/2911 30012KT PROB30 TEMPO 2912/2918 4000 +SHRA PROB30 TEMPO 2921/3003 6000 SHRA